• Join FlightAware (Why Join?)
  • Login
  • US Flag 
07:59AM EDT


 

Airport Tracker/Info


-or-


 

Live Flight TrackerFlight Track Log ✈ N377QS ✈ 11-May-2013 ✈ KBFI - KSAN

Flight Track Log - Related Links

Times and Time Zones

All times are in EDT time to prevent confusion due to time zone crossing. See the N377QS flight status page for this flight to view local times or setup timezone preferences in your user account.

Time Position Orientation Groundspeed Altitude Reporting Facility
EDT Latitude Longitude Course Direction KTS MPH feet Rate Location/Type
01:25PM 47.5172 -122.2914 146° Southeast 171 197 1,200  Level Seattle Center
01:27PM 47.4603 -122.2342 146° Southeast 218 251 3,900 2,100 Climbing Seattle Center
01:28PM 47.4125 -122.1950 151° Southeast 215 247 6,000 1,260 Climbing Seattle Center
01:28PM 47.3722 -122.1867 172° South 231 266 6,000 900 Level Seattle Center
01:29PM 47.3025 -122.1731 172° South 251 289 7,500 2,160 Climbing Seattle Center
01:30PM 47.2253 -122.1514 169° South 282 325 10,400 3,000 Climbing Seattle Center
01:31PM 47.1386 -122.1811 193° South 326 375 13,700 3,120 Climbing Seattle Center
01:32PM 47.0700 -122.2781 224° Southwest 341 392 16,800 2,880 Climbing Seattle Center
01:33PM 46.9878 -122.3264 202° Southwest 352 405 19,600 2,640 Climbing Seattle Center
01:34PM 46.8889 -122.3064 172° South 361 415 22,200 2,400 Climbing Seattle Center
01:35PM 46.7869 -122.2858 172° South 373 429 24,600 2,400 Climbing Seattle Center
01:36PM 46.6831 -122.2611 171° South 381 438 27,100 2,460 Climbing Seattle Center
01:37PM 46.5767 -122.2350 170° South 389 448 29,600 2,400 Climbing Seattle Center
01:38PM 46.4731 -122.2039 168° South 387 445 32,000 2,160 Climbing Seattle Center
01:39PM 46.3703 -122.1731 168° South 382 440 34,100 2,040 Climbing Seattle Center
01:40PM 46.2461 -122.1361 168° South 382 440 36,200 1,680 Climbing Seattle Center
01:41PM 46.1506 -122.1094 169° South 384 442 37,600 1,380 Climbing Seattle Center
01:42PM 46.0433 -122.0783 169° South 390 449 39,100 1,260 Climbing Seattle Center
01:43PM 45.9375 -122.0475 169° South 389 448 40,200 900 Climbing Seattle Center
01:45PM 45.8303 -122.0158 168° South 393 452 41,000 360 Climbing Seattle Center
01:46PM 45.7161 -121.9833 169° South 413 475 41,000  Level Seattle Center
01:47PM 45.5986 -121.9514 169° South 424 488 41,000  Level Seattle Center
01:48PM 45.4500 -121.9061 168° South 445 512 41,000  Level Seattle Center
01:49PM 45.3292 -121.8714 169° South 446 513 41,000  Level Seattle Center
01:50PM 45.2058 -121.8397 170° South 449 517 41,000  Level Seattle Center
01:51PM 45.0847 -121.8044 168° South 448 516 41,000  Level Seattle Center
01:52PM 44.9625 -121.7697 169° South 450 518 41,000  Level Seattle Center
01:53PM 44.8406 -121.7369 169° South 449 517 41,000  Level Seattle Center
01:54PM 44.7181 -121.7033 169° South 450 518 41,000  Level Seattle Center
01:55PM 44.5950 -121.6689 169° South 453 521 41,000  Level Seattle Center
01:56PM 44.4711 -121.6353 169° South 455 524 41,000  Level Seattle Center
01:57PM 44.3464 -121.6022 169° South 456 525 41,000  Level Seattle Center
01:58PM 44.2222 -121.5681 169° South 459 528 41,000  Level Seattle Center
01:59PM 44.0722 -121.5275 169° South 459 528 41,000  Level Seattle Center
02:00PM 43.9467 -121.4936 169° South 461 531 41,000  Level Seattle Center
02:01PM 43.8192 -121.4500 166° South 462 532 41,000  Level Seattle Center
02:02PM 43.6917 -121.4069 166° South 470 541 41,000  Level Seattle Center
02:03PM 43.5678 -121.3622 165° South 464 534 41,000  Level Seattle Center
02:04PM 43.4422 -121.3150 165° South 467 537 41,000  Level Seattle Center
02:05PM 43.3161 -121.2733 166° South 467 537 41,000  Level Seattle Center
02:06PM 43.1900 -121.2319 167° South 467 537 41,000  Level Seattle Center
02:07PM 43.0639 -121.1869 165° South 468 539 41,000  Level Seattle Center
02:08PM 42.9369 -121.1450 166° South 469 540 41,000  Level Seattle Center
02:09PM 42.8094 -121.1008 166° South 470 541 41,000  Level Seattle Center
02:10PM 42.6844 -121.0569 166° South 467 537 41,000  Level Seattle Center
02:11PM 42.5569 -121.0150 166° South 470 541 41,000  Level Seattle Center
02:12PM 42.4283 -120.9714 166° South 472 543 41,000  Level Seattle Center
02:13PM 42.3000 -120.9264 165° South 475 547 41,000  Level Seattle Center
02:14PM 42.1714 -120.8831 166° South 474 545 41,000  Level Seattle Center
02:15PM 42.0422 -120.8397 166° South 474 545 41,000  Level Seattle Center
02:16PM 41.9111 -120.7958 166° South 478 550 41,000  Level Seattle Center
02:17PM 41.7794 -120.7536 167° South 482 555 41,000  Level Seattle Center
02:18PM 41.6494 -120.7100 166° South 481 554 41,000  Level Seattle Center
02:19PM 41.5197 -120.6664 166° South 480 552 41,000  Level Seattle Center
02:20PM 41.3647 -120.6139 166° South 479 551 41,000  Level Seattle Center
02:21PM 41.2339 -120.5714 166° South 480 552 41,000  Level Seattle Center
02:22PM 41.1028 -120.5286 166° South 483 556 41,000  Level Seattle Center
02:23PM 40.9717 -120.4869 167° South 482 555 41,000  Level Seattle Center
02:24PM 40.8394 -120.4456 167° South 486 559 41,000  Level Seattle Center
02:25PM 40.7878 -120.4278 165° South 485 558 41,000  Level Oakland Center
02:26PM 40.6561 -120.3850 166° South 486 559 41,000  Level Oakland Center
02:27PM 40.5181 -120.3422 167° South 485 558 41,000  Level Oakland Center
02:28PM 40.3872 -120.3014 167° South 484 557 41,000  Level Oakland Center
02:28PM 40.3081 -120.2769 167° South 484 557 41,000  Level Seattle Center
02:29PM 40.2561 -120.2603 166° South 485 558 41,000  Level Oakland Center
02:30PM 40.1264 -120.2186 166° South 482 555 41,000  Level Oakland Center
02:31PM 39.9742 -120.1714 167° South 487 560 41,000  Level Oakland Center
02:32PM 39.8425 -120.1308 167° South 486 559 41,000  Level Oakland Center
02:33PM 39.7036 -120.0869 166° South 491 565 41,000  Level Oakland Center
02:34PM 39.5708 -120.0461 167° South 492 566 41,000  Level Oakland Center
02:35PM 39.4386 -120.0050 166° South 490 564 41,000  Level Oakland Center
02:36PM 39.3050 -119.9647 167° South 493 567 41,000  Level Oakland Center
02:37PM 39.1706 -119.9225 166° South 496 571 41,000  Level Oakland Center
02:38PM 39.0375 -119.8811 166° South 495 570 41,000  Level Oakland Center
02:39PM 38.9047 -119.8417 167° South 492 566 41,000  Level Oakland Center
02:40PM 38.7706 -119.8011 167° South 492 566 41,000  Level Oakland Center
02:41PM 38.6133 -119.7539 167° South 492 566 41,000  Level Oakland Center
02:42PM 38.4811 -119.7142 167° South 491 565 41,000  Level Oakland Center
02:43PM 38.3431 -119.6733 167° South 493 567 41,000  Level Oakland Center
02:44PM 38.2081 -119.6331 167° South 495 570 41,000  Level Oakland Center
02:45PM 38.0764 -119.5922 166° South 489 563 41,000  Level Oakland Center
02:46PM 37.9431 -119.5519 167° South 487 560 41,000  Level Oakland Center
02:47PM 37.8050 -119.5136 168° South 498 573 41,000  Level Oakland Center
02:48PM 37.6708 -119.4747 167° South 496 571 41,000  Level Oakland Center
02:49PM 37.5328 -119.4347 167° South 496 571 41,000  Level Oakland Center
02:50PM 37.3994 -119.3972 167° South 490 564 41,000  Level Oakland Center
02:51PM 37.2650 -119.3583 167° South 492 566 41,000  Level Oakland Center
02:52PM 37.1319 -119.3194 167° South 489 563 41,000  Level Oakland Center
02:53PM 36.9731 -119.2725 167° South 487 560 41,000  Level Oakland Center
02:54PM 36.8392 -119.2328 167° South 494 568 41,000  Level Oakland Center
02:55PM 36.7061 -119.1950 167° South 490 564 41,000  Level Oakland Center
02:56PM 36.5739 -119.1575 167° South 487 560 41,000  Level Oakland Center
02:57PM 36.4394 -119.1175 167° South 494 568 41,000  Level Oakland Center
02:58PM 36.3075 -119.0814 168° South 487 560 41,000  Level Oakland Center
02:59PM 36.1767 -119.0467 168° South 481 554 41,000  Level Oakland Center
03:00PM 36.0442 -119.0092 167° South 483 556 41,000  Level Oakland Center
03:01PM 35.9111 -118.9717 167° South 487 560 41,000  Level Oakland Center
03:02PM 35.7783 -118.9344 167° South 489 563 41,000  Level Oakland Center
03:03PM 35.6442 -118.8972 167° South 492 566 41,000  Level Oakland Center
03:04PM 35.4836 -118.8531 167° South 491 565 41,000  Level Oakland Center
03:05PM 35.3478 -118.8158 167° South 493 567 41,000  Level Los Angeles Center
03:07PM 35.2133 -118.7783 167° South 493 567 41,000  Level Los Angeles Center
03:08PM 35.0792 -118.7417 167° South 493 567 41,000  Level Los Angeles Center
03:09PM 34.9436 -118.7050 167° South 496 571 41,000  Level Los Angeles Center
03:10PM 34.7931 -118.6642 167° South 498 573 41,000  Level Los Angeles Center
03:11PM 34.6578 -118.6286 168° South 499 574 41,000  Level Los Angeles Center
03:12PM 34.5228 -118.5917 167° South 499 574 41,000  Level Los Angeles Center
03:13PM 34.4181 -118.5486 161° South 499 574 41,000 -540 Level Los Angeles Center
03:14PM 34.2542 -118.4253 148° Southeast 495 570 39,900 -1,440 Descending Los Angeles Center
03:15PM 34.1386 -118.3378 148° Southeast 490 564 38,100 -1,740 Descending Los Angeles Center
03:16PM 34.0497 -118.2689 147° Southeast 478 550 36,400 -2,160 Descending Los Angeles Center
03:17PM 33.9158 -118.1658 147° Southeast 472 543 33,700 -2,520 Descending Los Angeles Center
03:18PM 33.8011 -118.0783 148° Southeast 481 554 31,300 -2,460 Descending Los Angeles Center
03:19PM 33.6858 -117.9911 148° Southeast 483 556 28,700 -2,580 Descending Los Angeles Center
03:20PM 33.5761 -117.9097 148° Southeast 460 529 26,000 -2,640 Descending Los Angeles Center
03:21PM 33.4736 -117.8325 148° Southeast 436 502 23,300 -3,180 Descending Los Angeles Center
03:21PM 33.4333 -117.7833 134° Southeast 405 466 21,600 -3,540 Descending Southern California TRACON
03:22PM 33.3500 -117.7000 140° Southeast 379 436 18,500 -2,820 Descending Southern California TRACON
03:23PM 33.3086 -117.6356 128° Southeast 378 435 16,900 -2,640 Descending Los Angeles Center
03:23PM 33.2833 -117.6000 130° Southeast 367 422 15,900 -1,500 Descending Southern California TRACON
03:24PM 33.2000 -117.5333 146° Southeast 354 407 15,000 -480 Descending Southern California TRACON
03:25PM 33.1333 -117.4667 140° Southeast 360 414 15,000 -300 Level Southern California TRACON
03:26PM 33.0764 -117.4189 145° Southeast 353 406 14,500 -1,620 Descending Los Angeles Center
03:27PM 32.9967 -117.3564 147° Southeast 347 399 11,900 -2,760 Descending Los Angeles Center
03:28PM 32.9119 -117.2897 147° Southeast 312 359 8,800 -2,760 Descending Los Angeles Center
03:29PM 32.8494 -117.2389 146° Southeast 278 320 6,200 -1,860 Descending Los Angeles Center
03:30PM 32.8078 -117.1833 132° Southeast 247 284 5,000 -660 Descending Los Angeles Center
03:31PM 32.7892 -117.1167 108° East 214 246 4,900 -300 Descending Los Angeles Center
03:32PM 32.7719 -117.0517 107° East 209 241 4,400 -1,380 Descending Los Angeles Center
03:33PM 32.7167 -117.0667 193° South 212 244 2,300 -1,620 Descending Southern California TRACON
03:34PM 32.7167 -117.1333 270° West 130 150 1,200 -900 Descending Southern California TRACON
03:35PM 32.7333 -117.1667 301° West 111 128 500 -540 Descending Southern California TRACON
03:36PM 32.7361 -117.1964 276° West 117 135 100 -360 Descending Los Angeles Center
03:38PM 32.7336 -117.1897 235° Southwest  Level Estimated
03:45PM 32.7333 -117.1833 235° Southwest  Level FlightAware Approximate